National Weather Service Raw Text Product

Displaying AFOS PIL: TAFALO Received: 2017-10-13 11:38 UTC


697 
FTUS43 KDMX 131138
TAFALO
TAF
KALO 131138Z 1312/1412 15004KT P6SM SCT040 OVC060
     FM131400 VRB03KT P6SM BKN020
     FM131800 02006KT 5SM -SHRA OVC015
     FM140300 04007KT P6SM OVC027
     FM141100 06008KT P6SM -SHRA OVC011=